sensor_id;sensor_type;location;lat;lon;timestamp;P1;durP1;ratioP1;P2;durP2;ratioP2
10430;SDS011;5262;59.958;17.726;2023-11-21T00:01:01;0.33;;;0.30;;
10430;SDS011;5262;59.958;17.726;2023-11-21T00:03:29;0.40;;;0.30;;
10430;SDS011;5262;59.958;17.726;2023-11-21T00:05:55;0.53;;;0.50;;
10430;SDS011;5262;59.958;17.726;2023-11-21T00:08:21;0.40;;;0.40;;
10430;SDS011;5262;59.958;17.726;2023-11-21T00:10:46;0.70;;;0.50;;
10430;SDS011;5262;59.958;17.726;2023-11-21T00:13:13;0.50;;;0.40;;
10430;SDS011;5262;59.958;17.726;2023-11-21T00:15:39;0.57;;;0.40;;
10430;SDS011;5262;59.958;17.726;2023-11-21T00:18:05;0.40;;;0.30;;
10430;SDS011;5262;59.958;17.726;2023-11-21T00:20:31;0.63;;;0.47;;
10430;SDS011;5262;59.958;17.726;2023-11-21T00:22:57;0.83;;;0.50;;
10430;SDS011;5262;59.958;17.726;2023-11-21T00:25:24;0.50;;;0.40;;
10430;SDS011;5262;59.958;17.726;2023-11-21T00:27:50;0.60;;;0.37;;
10430;SDS011;5262;59.958;17.726;2023-11-21T00:30:16;0.40;;;0.30;;
10430;SDS011;5262;59.958;17.726;2023-11-21T00:32:41;0.33;;;0.30;;
10430;SDS011;5262;59.958;17.726;2023-11-21T00:35:08;0.50;;;0.40;;
10430;SDS011;5262;59.958;17.726;2023-11-21T00:37:34;1.23;;;0.50;;
10430;SDS011;5262;59.958;17.726;2023-11-21T00:39:59;0.70;;;0.33;;
10430;SDS011;5262;59.958;17.726;2023-11-21T00:42:25;0.50;;;0.40;;
10430;SDS011;5262;59.958;17.726;2023-11-21T00:44:51;0.40;;;0.40;;
10430;SDS011;5262;59.958;17.726;2023-11-21T00:47:16;0.83;;;0.50;;
10430;SDS011;5262;59.958;17.726;2023-11-21T00:49:42;0.60;;;0.43;;
10430;SDS011;5262;59.958;17.726;2023-11-21T00:52:08;0.60;;;0.60;;
10430;SDS011;5262;59.958;17.726;2023-11-21T00:54:34;1.33;;;0.50;;
10430;SDS011;5262;59.958;17.726;2023-11-21T00:56:59;0.93;;;0.50;;
10430;SDS011;5262;59.958;17.726;2023-11-21T00:59:25;0.60;;;0.50;;
10430;SDS011;5262;59.958;17.726;2023-11-21T01:01:51;1.27;;;0.70;;
10430;SDS011;5262;59.958;17.726;2023-11-21T01:04:16;2.67;;;0.60;;
10430;SDS011;5262;59.958;17.726;2023-11-21T01:06:42;0.67;;;0.50;;
10430;SDS011;5262;59.958;17.726;2023-11-21T01:09:07;0.40;;;0.40;;
10430;SDS011;5262;59.958;17.726;2023-11-21T01:11:36;0.90;;;0.67;;
10430;SDS011;5262;59.958;17.726;2023-11-21T01:14:03;0.80;;;0.60;;
10430;SDS011;5262;59.958;17.726;2023-11-21T01:16:29;0.80;;;0.63;;
10430;SDS011;5262;59.958;17.726;2023-11-21T01:18:57;1.20;;;0.70;;
10430;SDS011;5262;59.958;17.726;2023-11-21T01:21:24;1.20;;;0.80;;
10430;SDS011;5262;59.958;17.726;2023-11-21T01:23:50;0.90;;;0.70;;
10430;SDS011;5262;59.958;17.726;2023-11-21T01:26:15;1.23;;;0.70;;
10430;SDS011;5262;59.958;17.726;2023-11-21T01:28:41;0.70;;;0.63;;
10430;SDS011;5262;59.958;17.726;2023-11-21T01:31:07;0.93;;;0.60;;
10430;SDS011;5262;59.958;17.726;2023-11-21T01:33:32;1.07;;;0.90;;
10430;SDS011;5262;59.958;17.726;2023-11-21T01:35:58;1.10;;;0.87;;
10430;SDS011;5262;59.958;17.726;2023-11-21T01:38:25;0.70;;;0.67;;
10430;SDS011;5262;59.958;17.726;2023-11-21T01:40:50;1.50;;;0.60;;
10430;SDS011;5262;59.958;17.726;2023-11-21T01:43:16;0.87;;;0.80;;
10430;SDS011;5262;59.958;17.726;2023-11-21T01:45:42;1.10;;;0.80;;
10430;SDS011;5262;59.958;17.726;2023-11-21T01:48:10;1.33;;;0.97;;
10430;SDS011;5262;59.958;17.726;2023-11-21T01:50:36;1.20;;;0.80;;
10430;SDS011;5262;59.958;17.726;2023-11-21T01:53:01;1.73;;;0.60;;
10430;SDS011;5262;59.958;17.726;2023-11-21T01:55:28;1.97;;;0.97;;
10430;SDS011;5262;59.958;17.726;2023-11-21T01:57:55;0.73;;;0.67;;
10430;SDS011;5262;59.958;17.726;2023-11-21T02:00:22;1.03;;;0.70;;
10430;SDS011;5262;59.958;17.726;2023-11-21T02:02:48;0.90;;;0.80;;
10430;SDS011;5262;59.958;17.726;2023-11-21T02:05:15;0.90;;;0.73;;
10430;SDS011;5262;59.958;17.726;2023-11-21T02:07:44;1.50;;;0.93;;
10430;SDS011;5262;59.958;17.726;2023-11-21T02:10:13;0.90;;;0.80;;
10430;SDS011;5262;59.958;17.726;2023-11-21T02:12:43;1.37;;;1.10;;
10430;SDS011;5262;59.958;17.726;2023-11-21T02:15:13;1.17;;;0.90;;
10430;SDS011;5262;59.958;17.726;2023-11-21T02:17:45;1.70;;;0.90;;
10430;SDS011;5262;59.958;17.726;2023-11-21T02:20:12;1.43;;;0.80;;
10430;SDS011;5262;59.958;17.726;2023-11-21T02:22:43;1.07;;;0.97;;
10430;SDS011;5262;59.958;17.726;2023-11-21T02:25:13;1.10;;;0.97;;
10430;SDS011;5262;59.958;17.726;2023-11-21T02:27:39;1.20;;;1.00;;
10430;SDS011;5262;59.958;17.726;2023-11-21T02:30:05;1.33;;;1.00;;
10430;SDS011;5262;59.958;17.726;2023-11-21T02:32:32;1.53;;;1.10;;
10430;SDS011;5262;59.958;17.726;2023-11-21T02:34:58;1.40;;;0.90;;
10430;SDS011;5262;59.958;17.726;2023-11-21T02:37:26;3.00;;;1.20;;
10430;SDS011;5262;59.958;17.726;2023-11-21T02:39:52;2.10;;;1.07;;
10430;SDS011;5262;59.958;17.726;2023-11-21T02:42:18;1.83;;;1.00;;
10430;SDS011;5262;59.958;17.726;2023-11-21T02:44:43;1.90;;;1.00;;
10430;SDS011;5262;59.958;17.726;2023-11-21T02:47:09;1.33;;;1.10;;
10430;SDS011;5262;59.958;17.726;2023-11-21T02:49:35;1.50;;;0.93;;
10430;SDS011;5262;59.958;17.726;2023-11-21T02:52:01;3.20;;;1.30;;
10430;SDS011;5262;59.958;17.726;2023-11-21T02:54:27;1.10;;;1.00;;
10430;SDS011;5262;59.958;17.726;2023-11-21T02:56:52;1.57;;;1.20;;
10430;SDS011;5262;59.958;17.726;2023-11-21T02:59:18;2.20;;;1.50;;
10430;SDS011;5262;59.958;17.726;2023-11-21T03:01:44;1.10;;;1.00;;
10430;SDS011;5262;59.958;17.726;2023-11-21T03:04:11;1.77;;;1.07;;
10430;SDS011;5262;59.958;17.726;2023-11-21T03:06:42;1.47;;;1.10;;
10430;SDS011;5262;59.958;17.726;2023-11-21T03:09:09;1.20;;;1.10;;
10430;SDS011;5262;59.958;17.726;2023-11-21T03:11:34;1.10;;;1.00;;
10430;SDS011;5262;59.958;17.726;2023-11-21T03:14:00;1.30;;;1.20;;
10430;SDS011;5262;59.958;17.726;2023-11-21T03:16:26;1.90;;;1.20;;
10430;SDS011;5262;59.958;17.726;2023-11-21T03:18:51;2.07;;;1.20;;
10430;SDS011;5262;59.958;17.726;2023-11-21T03:21:17;1.63;;;1.10;;
10430;SDS011;5262;59.958;17.726;2023-11-21T03:23:43;2.27;;;1.43;;
10430;SDS011;5262;59.958;17.726;2023-11-21T03:26:11;1.67;;;1.40;;
10430;SDS011;5262;59.958;17.726;2023-11-21T03:28:38;2.67;;;1.20;;
10430;SDS011;5262;59.958;17.726;2023-11-21T03:31:04;2.10;;;1.30;;
10430;SDS011;5262;59.958;17.726;2023-11-21T03:33:31;2.00;;;1.27;;
10430;SDS011;5262;59.958;17.726;2023-11-21T03:35:57;2.73;;;1.60;;
10430;SDS011;5262;59.958;17.726;2023-11-21T03:38:23;1.63;;;1.17;;
10430;SDS011;5262;59.958;17.726;2023-11-21T03:40:48;1.60;;;1.33;;
10430;SDS011;5262;59.958;17.726;2023-11-21T03:43:15;1.90;;;1.40;;
10430;SDS011;5262;59.958;17.726;2023-11-21T03:45:41;1.60;;;1.43;;
10430;SDS011;5262;59.958;17.726;2023-11-21T03:48:07;2.27;;;1.60;;
10430;SDS011;5262;59.958;17.726;2023-11-21T03:50:34;1.63;;;1.27;;
10430;SDS011;5262;59.958;17.726;2023-11-21T03:53:00;1.73;;;1.33;;
10430;SDS011;5262;59.958;17.726;2023-11-21T03:55:25;2.13;;;1.30;;
10430;SDS011;5262;59.958;17.726;2023-11-21T03:57:51;1.97;;;1.30;;
10430;SDS011;5262;59.958;17.726;2023-11-21T04:00:17;1.50;;;1.20;;
10430;SDS011;5262;59.958;17.726;2023-11-21T04:02:45;2.53;;;1.30;;
10430;SDS011;5262;59.958;17.726;2023-11-21T04:05:10;1.60;;;1.40;;
10430;SDS011;5262;59.958;17.726;2023-11-21T04:07:37;2.37;;;1.23;;
10430;SDS011;5262;59.958;17.726;2023-11-21T04:10:04;5.17;;;1.40;;
10430;SDS011;5262;59.958;17.726;2023-11-21T04:12:33;2.00;;;1.40;;
10430;SDS011;5262;59.958;17.726;2023-11-21T04:14:59;1.80;;;1.30;;
10430;SDS011;5262;59.958;17.726;2023-11-21T04:17:24;2.83;;;1.70;;
10430;SDS011;5262;59.958;17.726;2023-11-21T04:19:50;1.40;;;1.30;;
10430;SDS011;5262;59.958;17.726;2023-11-21T04:22:15;4.93;;;1.30;;
10430;SDS011;5262;59.958;17.726;2023-11-21T04:24:41;1.47;;;1.20;;
10430;SDS011;5262;59.958;17.726;2023-11-21T04:27:07;1.87;;;1.23;;
10430;SDS011;5262;59.958;17.726;2023-11-21T04:29:33;1.50;;;1.10;;
10430;SDS011;5262;59.958;17.726;2023-11-21T04:31:58;2.90;;;1.37;;
10430;SDS011;5262;59.958;17.726;2023-11-21T04:34:24;2.07;;;1.30;;
10430;SDS011;5262;59.958;17.726;2023-11-21T04:36:50;3.17;;;1.43;;
10430;SDS011;5262;59.958;17.726;2023-11-21T04:39:15;2.03;;;1.40;;
10430;SDS011;5262;59.958;17.726;2023-11-21T04:41:41;2.53;;;1.30;;
10430;SDS011;5262;59.958;17.726;2023-11-21T04:44:07;1.77;;;1.50;;
10430;SDS011;5262;59.958;17.726;2023-11-21T04:46:33;3.20;;;1.67;;
10430;SDS011;5262;59.958;17.726;2023-11-21T04:48:59;2.40;;;1.60;;
10430;SDS011;5262;59.958;17.726;2023-11-21T04:51:24;1.73;;;1.50;;
10430;SDS011;5262;59.958;17.726;2023-11-21T04:53:50;2.60;;;1.37;;
10430;SDS011;5262;59.958;17.726;2023-11-21T04:56:15;2.03;;;1.63;;
10430;SDS011;5262;59.958;17.726;2023-11-21T04:58:41;1.67;;;1.57;;
10430;SDS011;5262;59.958;17.726;2023-11-21T05:01:07;2.07;;;1.80;;
10430;SDS011;5262;59.958;17.726;2023-11-21T05:03:33;1.53;;;1.40;;
10430;SDS011;5262;59.958;17.726;2023-11-21T05:05:59;1.83;;;1.73;;
10430;SDS011;5262;59.958;17.726;2023-11-21T05:08:25;2.37;;;1.40;;
10430;SDS011;5262;59.958;17.726;2023-11-21T05:10:51;3.03;;;2.00;;
10430;SDS011;5262;59.958;17.726;2023-11-21T05:13:18;3.27;;;1.60;;
10430;SDS011;5262;59.958;17.726;2023-11-21T05:15:45;2.33;;;1.70;;
10430;SDS011;5262;59.958;17.726;2023-11-21T05:18:11;2.33;;;1.60;;
10430;SDS011;5262;59.958;17.726;2023-11-21T05:20:38;1.70;;;1.20;;
10430;SDS011;5262;59.958;17.726;2023-11-21T05:23:05;2.33;;;1.50;;
10430;SDS011;5262;59.958;17.726;2023-11-21T05:25:33;1.60;;;1.40;;
10430;SDS011;5262;59.958;17.726;2023-11-21T05:27:58;4.93;;;1.77;;
10430;SDS011;5262;59.958;17.726;2023-11-21T05:30:26;1.47;;;1.37;;
10430;SDS011;5262;59.958;17.726;2023-11-21T05:32:53;2.43;;;1.53;;
10430;SDS011;5262;59.958;17.726;2023-11-21T05:35:18;3.40;;;1.60;;
10430;SDS011;5262;59.958;17.726;2023-11-21T05:37:44;2.23;;;1.70;;
10430;SDS011;5262;59.958;17.726;2023-11-21T05:40:10;3.37;;;2.00;;
10430;SDS011;5262;59.958;17.726;2023-11-21T05:42:38;2.10;;;1.90;;
10430;SDS011;5262;59.958;17.726;2023-11-21T05:45:05;3.20;;;1.50;;
10430;SDS011;5262;59.958;17.726;2023-11-21T05:47:40;2.90;;;1.53;;
10430;SDS011;5262;59.958;17.726;2023-11-21T05:50:07;2.47;;;1.70;;
10430;SDS011;5262;59.958;17.726;2023-11-21T05:52:39;3.80;;;1.80;;
10430;SDS011;5262;59.958;17.726;2023-11-21T05:55:06;4.80;;;1.93;;
10430;SDS011;5262;59.958;17.726;2023-11-21T05:57:35;3.10;;;1.70;;
10430;SDS011;5262;59.958;17.726;2023-11-21T06:02:36;3.30;;;2.00;;
10430;SDS011;5262;59.958;17.726;2023-11-21T06:05:08;3.80;;;1.80;;
10430;SDS011;5262;59.958;17.726;2023-11-21T06:07:34;2.00;;;1.80;;
10430;SDS011;5262;59.958;17.726;2023-11-21T06:10:01;5.20;;;2.10;;
10430;SDS011;5262;59.958;17.726;2023-11-21T06:12:30;2.00;;;1.80;;
10430;SDS011;5262;59.958;17.726;2023-11-21T06:15:00;2.77;;;1.80;;
10430;SDS011;5262;59.958;17.726;2023-11-21T06:17:30;2.00;;;1.77;;
10430;SDS011;5262;59.958;17.726;2023-11-21T06:19:56;3.77;;;1.70;;
10430;SDS011;5262;59.958;17.726;2023-11-21T06:22:22;2.23;;;1.73;;
10430;SDS011;5262;59.958;17.726;2023-11-21T06:24:48;3.27;;;2.33;;
10430;SDS011;5262;59.958;17.726;2023-11-21T06:27:13;3.77;;;2.30;;
10430;SDS011;5262;59.958;17.726;2023-11-21T06:29:39;2.13;;;1.73;;
10430;SDS011;5262;59.958;17.726;2023-11-21T06:32:07;3.23;;;2.00;;
10430;SDS011;5262;59.958;17.726;2023-11-21T06:34:33;3.63;;;1.80;;
10430;SDS011;5262;59.958;17.726;2023-11-21T06:36:59;2.23;;;2.00;;
10430;SDS011;5262;59.958;17.726;2023-11-21T06:39:24;3.53;;;1.90;;
10430;SDS011;5262;59.958;17.726;2023-11-21T06:41:50;2.80;;;2.00;;
10430;SDS011;5262;59.958;17.726;2023-11-21T06:44:16;2.27;;;2.00;;
10430;SDS011;5262;59.958;17.726;2023-11-21T06:46:41;2.50;;;2.10;;
10430;SDS011;5262;59.958;17.726;2023-11-21T06:49:07;2.60;;;1.80;;
10430;SDS011;5262;59.958;17.726;2023-11-21T06:51:33;3.17;;;2.00;;
10430;SDS011;5262;59.958;17.726;2023-11-21T06:53:59;2.40;;;2.10;;
10430;SDS011;5262;59.958;17.726;2023-11-21T06:56:25;2.83;;;2.53;;
10430;SDS011;5262;59.958;17.726;2023-11-21T06:58:50;4.27;;;2.30;;
10430;SDS011;5262;59.958;17.726;2023-11-21T07:01:19;3.10;;;2.17;;
10430;SDS011;5262;59.958;17.726;2023-11-21T07:03:45;3.43;;;2.40;;
10430;SDS011;5262;59.958;17.726;2023-11-21T07:06:10;4.60;;;2.60;;
10430;SDS011;5262;59.958;17.726;2023-11-21T07:08:36;3.43;;;2.67;;
10430;SDS011;5262;59.958;17.726;2023-11-21T07:11:03;2.63;;;2.40;;
10430;SDS011;5262;59.958;17.726;2023-11-21T07:13:29;4.43;;;2.47;;
10430;SDS011;5262;59.958;17.726;2023-11-21T07:15:55;2.70;;;2.33;;
10430;SDS011;5262;59.958;17.726;2023-11-21T07:18:21;4.93;;;2.63;;
10430;SDS011;5262;59.958;17.726;2023-11-21T07:20:48;2.93;;;2.37;;
10430;SDS011;5262;59.958;17.726;2023-11-21T07:23:13;3.43;;;2.70;;
10430;SDS011;5262;59.958;17.726;2023-11-21T07:25:40;5.73;;;2.70;;
10430;SDS011;5262;59.958;17.726;2023-11-21T07:28:08;3.73;;;2.93;;
10430;SDS011;5262;59.958;17.726;2023-11-21T07:30:34;4.23;;;2.70;;
10430;SDS011;5262;59.958;17.726;2023-11-21T07:32:59;3.80;;;2.93;;
10430;SDS011;5262;59.958;17.726;2023-11-21T07:35:25;3.03;;;2.60;;
10430;SDS011;5262;59.958;17.726;2023-11-21T07:37:51;4.60;;;3.23;;
10430;SDS011;5262;59.958;17.726;2023-11-21T07:40:17;3.80;;;2.80;;
10430;SDS011;5262;59.958;17.726;2023-11-21T07:42:42;3.90;;;2.90;;
10430;SDS011;5262;59.958;17.726;2023-11-21T07:45:08;4.20;;;2.97;;
10430;SDS011;5262;59.958;17.726;2023-11-21T07:47:34;3.83;;;2.67;;
10430;SDS011;5262;59.958;17.726;2023-11-21T07:50:01;4.10;;;3.10;;
10430;SDS011;5262;59.958;17.726;2023-11-21T07:52:28;3.57;;;2.87;;
10430;SDS011;5262;59.958;17.726;2023-11-21T07:54:53;3.27;;;2.97;;
10430;SDS011;5262;59.958;17.726;2023-11-21T07:57:19;4.13;;;3.10;;
10430;SDS011;5262;59.958;17.726;2023-11-21T07:59:45;6.63;;;3.63;;
10430;SDS011;5262;59.958;17.726;2023-11-21T08:02:10;4.77;;;3.40;;
10430;SDS011;5262;59.958;17.726;2023-11-21T08:04:36;3.77;;;2.57;;
10430;SDS011;5262;59.958;17.726;2023-11-21T08:07:01;8.57;;;4.00;;
10430;SDS011;5262;59.958;17.726;2023-11-21T08:09:29;5.50;;;3.27;;
10430;SDS011;5262;59.958;17.726;2023-11-21T08:11:55;5.87;;;3.00;;
10430;SDS011;5262;59.958;17.726;2023-11-21T08:14:21;4.83;;;3.40;;
10430;SDS011;5262;59.958;17.726;2023-11-21T08:16:50;5.70;;;3.37;;
10430;SDS011;5262;59.958;17.726;2023-11-21T08:19:16;6.57;;;3.53;;
10430;SDS011;5262;59.958;17.726;2023-11-21T08:21:43;5.17;;;3.23;;
10430;SDS011;5262;59.958;17.726;2023-11-21T08:24:09;6.33;;;3.40;;
10430;SDS011;5262;59.958;17.726;2023-11-21T08:26:36;5.03;;;3.50;;
10430;SDS011;5262;59.958;17.726;2023-11-21T08:29:02;5.50;;;3.80;;
10430;SDS011;5262;59.958;17.726;2023-11-21T08:31:28;6.37;;;3.50;;
10430;SDS011;5262;59.958;17.726;2023-11-21T08:33:54;5.20;;;3.50;;
10430;SDS011;5262;59.958;17.726;2023-11-21T08:36:23;6.53;;;3.43;;
10430;SDS011;5262;59.958;17.726;2023-11-21T08:38:51;5.97;;;3.87;;
10430;SDS011;5262;59.958;17.726;2023-11-21T08:41:19;4.63;;;3.13;;
10430;SDS011;5262;59.958;17.726;2023-11-21T08:43:56;6.53;;;3.50;;
10430;SDS011;5262;59.958;17.726;2023-11-21T08:46:25;7.60;;;3.97;;
10430;SDS011;5262;59.958;17.726;2023-11-21T08:48:51;5.63;;;3.20;;
10430;SDS011;5262;59.958;17.726;2023-11-21T08:51:17;4.20;;;3.30;;
10430;SDS011;5262;59.958;17.726;2023-11-21T08:53:43;4.27;;;3.47;;
10430;SDS011;5262;59.958;17.726;2023-11-21T08:56:12;5.00;;;3.27;;
10430;SDS011;5262;59.958;17.726;2023-11-21T08:58:43;3.53;;;3.00;;
10430;SDS011;5262;59.958;17.726;2023-11-21T09:01:09;4.70;;;3.40;;
10430;SDS011;5262;59.958;17.726;2023-11-21T09:03:34;4.37;;;3.00;;
10430;SDS011;5262;59.958;17.726;2023-11-21T09:06:00;3.60;;;2.77;;
10430;SDS011;5262;59.958;17.726;2023-11-21T09:08:26;4.43;;;3.47;;
10430;SDS011;5262;59.958;17.726;2023-11-21T09:10:53;5.73;;;3.40;;
10430;SDS011;5262;59.958;17.726;2023-11-21T09:13:19;3.97;;;3.20;;
10430;SDS011;5262;59.958;17.726;2023-11-21T09:15:44;3.83;;;3.20;;
10430;SDS011;5262;59.958;17.726;2023-11-21T09:18:14;5.00;;;2.80;;
10430;SDS011;5262;59.958;17.726;2023-11-21T09:20:45;4.40;;;2.53;;
10430;SDS011;5262;59.958;17.726;2023-11-21T09:23:11;2.80;;;2.43;;
10430;SDS011;5262;59.958;17.726;2023-11-21T09:25:37;3.80;;;2.60;;
10430;SDS011;5262;59.958;17.726;2023-11-21T09:28:05;4.20;;;2.90;;
10430;SDS011;5262;59.958;17.726;2023-11-21T09:30:34;4.63;;;2.70;;
10430;SDS011;5262;59.958;17.726;2023-11-21T09:33:01;3.70;;;3.10;;
10430;SDS011;5262;59.958;17.726;2023-11-21T09:35:27;5.63;;;3.40;;
10430;SDS011;5262;59.958;17.726;2023-11-21T09:37:53;4.27;;;2.40;;
10430;SDS011;5262;59.958;17.726;2023-11-21T09:40:20;3.00;;;2.63;;
10430;SDS011;5262;59.958;17.726;2023-11-21T09:42:56;3.17;;;2.60;;
10430;SDS011;5262;59.958;17.726;2023-11-21T09:47:54;3.53;;;2.63;;
10430;SDS011;5262;59.958;17.726;2023-11-21T09:50:20;3.10;;;2.60;;
10430;SDS011;5262;59.958;17.726;2023-11-21T09:53:47;6.63;;;3.50;;
10430;SDS011;5262;59.958;17.726;2023-11-21T09:55:46;3.30;;;2.67;;
10430;SDS011;5262;59.958;17.726;2023-11-21T09:58:14;4.93;;;2.80;;
10430;SDS011;5262;59.958;17.726;2023-11-21T10:00:41;4.90;;;2.43;;
10430;SDS011;5262;59.958;17.726;2023-11-21T10:03:13;2.87;;;2.13;;
10430;SDS011;5262;59.958;17.726;2023-11-21T10:05:40;3.40;;;2.57;;
10430;SDS011;5262;59.958;17.726;2023-11-21T10:08:08;6.30;;;2.70;;
10430;SDS011;5262;59.958;17.726;2023-11-21T10:10:36;3.27;;;2.50;;
10430;SDS011;5262;59.958;17.726;2023-11-21T10:13:04;4.63;;;2.80;;
10430;SDS011;5262;59.958;17.726;2023-11-21T10:15:33;3.53;;;2.47;;
10430;SDS011;5262;59.958;17.726;2023-11-21T10:18:04;4.50;;;2.60;;
10430;SDS011;5262;59.958;17.726;2023-11-21T10:20:32;3.53;;;2.70;;
10430;SDS011;5262;59.958;17.726;2023-11-21T10:22:59;3.50;;;2.73;;
10430;SDS011;5262;59.958;17.726;2023-11-21T10:25:28;4.30;;;3.30;;
10430;SDS011;5262;59.958;17.726;2023-11-21T10:27:57;4.27;;;2.70;;
10430;SDS011;5262;59.958;17.726;2023-11-21T10:30:32;5.07;;;3.70;;
10430;SDS011;5262;59.958;17.726;2023-11-21T10:33:02;3.60;;;2.73;;
10430;SDS011;5262;59.958;17.726;2023-11-21T10:35:44;3.67;;;2.70;;
10430;SDS011;5262;59.958;17.726;2023-11-21T10:38:12;4.23;;;3.17;;
10430;SDS011;5262;59.958;17.726;2023-11-21T10:40:39;4.27;;;2.97;;
10430;SDS011;5262;59.958;17.726;2023-11-21T10:43:08;3.37;;;2.90;;
10430;SDS011;5262;59.958;17.726;2023-11-21T10:45:38;3.47;;;2.80;;
10430;SDS011;5262;59.958;17.726;2023-11-21T10:48:08;4.90;;;2.93;;
10430;SDS011;5262;59.958;17.726;2023-11-21T10:50:36;5.53;;;3.03;;
10430;SDS011;5262;59.958;17.726;2023-11-21T10:53:03;4.63;;;2.73;;
10430;SDS011;5262;59.958;17.726;2023-11-21T10:55:29;4.80;;;2.83;;
10430;SDS011;5262;59.958;17.726;2023-11-21T10:57:57;3.43;;;2.73;;
10430;SDS011;5262;59.958;17.726;2023-11-21T11:00:31;2.80;;;2.40;;
10430;SDS011;5262;59.958;17.726;2023-11-21T11:02:58;5.27;;;2.80;;
10430;SDS011;5262;59.958;17.726;2023-11-21T11:05:26;5.33;;;3.10;;
10430;SDS011;5262;59.958;17.726;2023-11-21T11:08:06;4.33;;;2.70;;
10430;SDS011;5262;59.958;17.726;2023-11-21T11:10:37;4.83;;;2.53;;
10430;SDS011;5262;59.958;17.726;2023-11-21T11:13:03;3.07;;;2.10;;
10430;SDS011;5262;59.958;17.726;2023-11-21T11:15:31;2.87;;;2.27;;
10430;SDS011;5262;59.958;17.726;2023-11-21T11:17:58;3.63;;;2.83;;
10430;SDS011;5262;59.958;17.726;2023-11-21T11:20:25;3.70;;;2.57;;
10430;SDS011;5262;59.958;17.726;2023-11-21T11:25:52;3.70;;;2.70;;
10430;SDS011;5262;59.958;17.726;2023-11-21T11:28:20;5.93;;;3.40;;
10430;SDS011;5262;59.958;17.726;2023-11-21T11:31:04;5.00;;;3.00;;
10430;SDS011;5262;59.958;17.726;2023-11-21T11:33:58;6.07;;;3.43;;
10430;SDS011;5262;59.958;17.726;2023-11-21T11:36:37;6.97;;;3.27;;
10430;SDS011;5262;59.958;17.726;2023-11-21T11:41:55;5.97;;;3.37;;
10430;SDS011;5262;59.958;17.726;2023-11-21T11:47:20;4.57;;;2.97;;
10430;SDS011;5262;59.958;17.726;2023-11-21T11:52:33;6.93;;;3.70;;
10430;SDS011;5262;59.958;17.726;2023-11-21T11:54:59;3.57;;;2.90;;
10430;SDS011;5262;59.958;17.726;2023-11-21T11:57:25;4.67;;;3.03;;
10430;SDS011;5262;59.958;17.726;2023-11-21T12:00:12;7.37;;;4.30;;
10430;SDS011;5262;59.958;17.726;2023-11-21T12:02:53;4.97;;;3.23;;
10430;SDS011;5262;59.958;17.726;2023-11-21T12:05:22;5.13;;;3.23;;
10430;SDS011;5262;59.958;17.726;2023-11-21T12:07:49;6.97;;;3.33;;
10430;SDS011;5262;59.958;17.726;2023-11-21T12:10:19;5.87;;;3.50;;
10430;SDS011;5262;59.958;17.726;2023-11-21T12:12:48;6.03;;;3.63;;
10430;SDS011;5262;59.958;17.726;2023-11-21T12:15:18;7.33;;;3.77;;
10430;SDS011;5262;59.958;17.726;2023-11-21T12:17:45;5.20;;;3.50;;
10430;SDS011;5262;59.958;17.726;2023-11-21T12:20:14;6.60;;;3.90;;
10430;SDS011;5262;59.958;17.726;2023-11-21T12:22:43;6.00;;;3.30;;
10430;SDS011;5262;59.958;17.726;2023-11-21T12:25:12;5.63;;;3.90;;
10430;SDS011;5262;59.958;17.726;2023-11-21T12:27:41;7.27;;;4.20;;
10430;SDS011;5262;59.958;17.726;2023-11-21T12:30:08;7.83;;;4.23;;
10430;SDS011;5262;59.958;17.726;2023-11-21T12:32:39;5.53;;;3.53;;
10430;SDS011;5262;59.958;17.726;2023-11-21T12:35:06;6.10;;;3.67;;
10430;SDS011;5262;59.958;17.726;2023-11-21T12:37:32;5.97;;;3.63;;
10430;SDS011;5262;59.958;17.726;2023-11-21T12:39:58;5.13;;;4.00;;
10430;SDS011;5262;59.958;17.726;2023-11-21T12:42:24;5.80;;;3.33;;
10430;SDS011;5262;59.958;17.726;2023-11-21T12:47:45;7.13;;;3.63;;
10430;SDS011;5262;59.958;17.726;2023-11-21T12:50:10;8.30;;;4.00;;
10430;SDS011;5262;59.958;17.726;2023-11-21T12:52:42;5.87;;;3.90;;
10430;SDS011;5262;59.958;17.726;2023-11-21T12:55:22;5.07;;;3.30;;
10430;SDS011;5262;59.958;17.726;2023-11-21T12:57:52;5.37;;;3.17;;
10430;SDS011;5262;59.958;17.726;2023-11-21T13:00:29;4.50;;;3.53;;
10430;SDS011;5262;59.958;17.726;2023-11-21T13:02:58;6.27;;;4.20;;
10430;SDS011;5262;59.958;17.726;2023-11-21T13:05:27;4.93;;;3.37;;
10430;SDS011;5262;59.958;17.726;2023-11-21T13:07:58;6.43;;;3.73;;
10430;SDS011;5262;59.958;17.726;2023-11-21T13:10:28;7.13;;;3.73;;
10430;SDS011;5262;59.958;17.726;2023-11-21T13:12:57;6.00;;;3.70;;
10430;SDS011;5262;59.958;17.726;2023-11-21T13:15:27;7.53;;;3.87;;
10430;SDS011;5262;59.958;17.726;2023-11-21T13:17:53;4.53;;;3.33;;
10430;SDS011;5262;59.958;17.726;2023-11-21T13:20:22;5.73;;;2.70;;
10430;SDS011;5262;59.958;17.726;2023-11-21T13:25:26;4.87;;;3.63;;
10430;SDS011;5262;59.958;17.726;2023-11-21T13:27:55;6.17;;;4.07;;
10430;SDS011;5262;59.958;17.726;2023-11-21T13:30:25;5.03;;;3.20;;
10430;SDS011;5262;59.958;17.726;2023-11-21T13:32:55;7.50;;;4.67;;
10430;SDS011;5262;59.958;17.726;2023-11-21T13:35:22;7.77;;;5.97;;
10430;SDS011;5262;59.958;17.726;2023-11-21T13:37:57;6.70;;;4.57;;
10430;SDS011;5262;59.958;17.726;2023-11-21T13:40:38;4.83;;;3.10;;
10430;SDS011;5262;59.958;17.726;2023-11-21T13:43:11;5.10;;;3.40;;
10430;SDS011;5262;59.958;17.726;2023-11-21T13:45:38;7.50;;;4.33;;
10430;SDS011;5262;59.958;17.726;2023-11-21T13:48:11;6.57;;;3.63;;
10430;SDS011;5262;59.958;17.726;2023-11-21T13:50:56;9.07;;;3.40;;
10430;SDS011;5262;59.958;17.726;2023-11-21T13:53:35;5.70;;;3.07;;
10430;SDS011;5262;59.958;17.726;2023-11-21T13:56:03;5.47;;;3.27;;
10430;SDS011;5262;59.958;17.726;2023-11-21T13:58:29;4.23;;;2.80;;
10430;SDS011;5262;59.958;17.726;2023-11-21T14:01:09;5.20;;;3.73;;
10430;SDS011;5262;59.958;17.726;2023-11-21T14:06:49;7.23;;;4.17;;
10430;SDS011;5262;59.958;17.726;2023-11-21T14:09:19;5.63;;;3.10;;
10430;SDS011;5262;59.958;17.726;2023-11-21T14:11:57;4.50;;;3.07;;
10430;SDS011;5262;59.958;17.726;2023-11-21T14:14:26;6.90;;;2.90;;
10430;SDS011;5262;59.958;17.726;2023-11-21T14:16:55;4.33;;;2.73;;
10430;SDS011;5262;59.958;17.726;2023-11-21T14:19:23;5.93;;;3.27;;
10430;SDS011;5262;59.958;17.726;2023-11-21T14:21:55;4.70;;;3.00;;
10430;SDS011;5262;59.958;17.726;2023-11-21T14:24:21;5.40;;;3.20;;
10430;SDS011;5262;59.958;17.726;2023-11-21T14:26:48;10.77;;;5.77;;
10430;SDS011;5262;59.958;17.726;2023-11-21T14:29:17;7.33;;;4.57;;
10430;SDS011;5262;59.958;17.726;2023-11-21T14:31:48;5.37;;;3.30;;
10430;SDS011;5262;59.958;17.726;2023-11-21T14:34:26;5.33;;;3.67;;
10430;SDS011;5262;59.958;17.726;2023-11-21T14:36:52;5.27;;;3.17;;
10430;SDS011;5262;59.958;17.726;2023-11-21T14:39:18;5.93;;;3.43;;
10430;SDS011;5262;59.958;17.726;2023-11-21T14:41:53;5.23;;;3.30;;
10430;SDS011;5262;59.958;17.726;2023-11-21T14:44:27;4.63;;;3.17;;
10430;SDS011;5262;59.958;17.726;2023-11-21T14:46:57;5.17;;;3.70;;
10430;SDS011;5262;59.958;17.726;2023-11-21T14:49:24;4.00;;;2.87;;
10430;SDS011;5262;59.958;17.726;2023-11-21T14:51:53;4.67;;;2.70;;
10430;SDS011;5262;59.958;17.726;2023-11-21T14:54:31;5.23;;;3.30;;
10430;SDS011;5262;59.958;17.726;2023-11-21T14:57:10;5.13;;;3.13;;
10430;SDS011;5262;59.958;17.726;2023-11-21T14:59:49;4.70;;;3.23;;
10430;SDS011;5262;59.958;17.726;2023-11-21T15:02:22;4.13;;;2.73;;
10430;SDS011;5262;59.958;17.726;2023-11-21T15:05:08;5.73;;;2.90;;
10430;SDS011;5262;59.958;17.726;2023-11-21T15:07:40;4.37;;;2.57;;
10430;SDS011;5262;59.958;17.726;2023-11-21T15:10:06;3.93;;;2.80;;
10430;SDS011;5262;59.958;17.726;2023-11-21T15:12:37;3.53;;;3.07;;
10430;SDS011;5262;59.958;17.726;2023-11-21T15:15:05;5.17;;;3.07;;
10430;SDS011;5262;59.958;17.726;2023-11-21T15:17:35;3.43;;;2.67;;